Time;durP1;ratioP1;P1;durP2;ratioP2;P2;SDS_P1;SDS_P2;PMS_P1;PMS_P2;Temp;Humidity;BMP_temperature;BMP_pressure;BME280_temperature;BME280_humidity;BME280_pressure;Samples;Min_cycle;Max_cycle;Signal;HPM_P1;HPM_P2
2023/06/11 00:01:26;;;;;;;8.90;7.10;;;22.60;99.90;;;;;;6252391;22;20446;-81
2023/06/11 00:03:53;;;;;;;8.43;6.60;;;22.60;99.90;;;;;;6251593;23;20446;-81
2023/06/11 00:06:23;;;;;;;6.80;6.10;;;22.50;99.90;;;;;;6253093;23;20414;-81
2023/06/11 00:08:51;;;;;;;9.70;7.07;;;22.50;99.90;;;;;;6252849;23;20407;-81
2023/06/11 00:11:20;;;;;;;7.87;7.07;;;22.50;99.90;;;;;;6252533;22;20466;-81
2023/06/11 00:13:47;;;;;;;8.40;6.90;;;22.50;99.90;;;;;;6250752;23;20507;-81
2023/06/11 00:16:14;;;;;;;7.83;7.03;;;22.40;99.90;;;;;;6252007;23;20502;-81
2023/06/11 00:18:42;;;;;;;7.57;6.33;;;22.40;99.90;;;;;;6252513;23;20443;-81
2023/06/11 00:21:09;;;;;;;7.67;6.87;;;22.40;99.90;;;;;;6252014;22;20520;-82
2023/06/11 00:23:37;;;;;;;7.70;6.33;;;22.40;99.90;;;;;;6252035;23;20473;-80
2023/06/11 00:26:05;;;;;;;7.37;6.67;;;22.30;99.90;;;;;;6255530;23;20412;-81
2023/06/11 00:28:34;;;;;;;7.87;6.00;;;22.30;99.90;;;;;;6253203;23;20404;-81
2023/06/11 00:31:03;;;;;;;7.00;6.30;;;22.30;99.90;;;;;;6252322;22;20514;-81
2023/06/11 00:33:30;;;;;;;7.23;6.63;;;22.30;99.90;;;;;;6251460;23;20408;-81
2023/06/11 00:35:57;;;;;;;7.57;6.30;;;22.30;99.90;;;;;;6252888;23;20415;-81
2023/06/11 00:38:24;;;;;;;8.93;6.80;;;22.20;99.90;;;;;;6251929;23;20523;-81
2023/06/11 00:40:50;;;;;;;6.93;6.00;;;22.20;99.90;;;;;;6252411;22;20415;-79
2023/06/11 00:43:21;;;;;;;7.20;6.23;;;22.10;99.90;;;;;;6251592;23;20810;-80
2023/06/11 00:45:50;;;;;;;7.00;5.97;;;22.10;99.90;;;;;;6252866;23;20766;-81
2023/06/11 00:48:19;;;;;;;7.53;6.80;;;22.10;99.90;;;;;;6252283;23;20801;-80
2023/06/11 00:50:47;;;;;;;6.97;6.30;;;22.00;99.90;;;;;;6251464;22;20442;-81
2023/06/11 00:53:14;;;;;;;8.60;7.13;;;22.00;99.90;;;;;;6251900;23;20469;-80
2023/06/11 00:55:41;;;;;;;7.47;6.77;;;21.90;99.90;;;;;;6252554;23;20419;-81
2023/06/11 00:58:13;;;;;;;7.37;6.67;;;21.80;99.90;;;;;;6251687;23;20451;-80
2023/06/11 01:00:42;;;;;;;8.60;6.20;;;21.80;1.00;;;;;;6252556;22;20899;-80
2023/06/11 01:03:17;;;;;;;7.50;6.73;;;21.70;1.00;;;;;;6250885;22;20420;-80
2023/06/11 01:05:49;;;;;;;7.90;6.97;;;21.60;1.00;;;;;;6253285;23;20818;-81
2023/06/11 01:08:19;;;;;;;7.90;6.50;;;21.60;1.00;;;;;;6252516;23;20416;-81
2023/06/11 01:10:47;;;;;;;7.10;6.40;;;21.50;1.00;;;;;;6252597;22;20412;-80
2023/06/11 01:13:14;;;;;;;7.23;6.53;;;21.50;1.00;;;;;;6250966;23;20414;-80
2023/06/11 01:15:40;;;;;;;7.20;6.50;;;21.50;1.00;;;;;;6251105;23;20495;-80
2023/06/11 01:18:18;;;;;;;8.20;6.83;;;21.50;1.00;;;;;;6251619;23;20418;-80
2023/06/11 01:20:50;;;;;;;7.60;6.90;;;21.50;1.00;;;;;;6252077;22;20376;-82
2023/06/11 01:23:31;;;;;;;7.83;6.60;;;21.50;1.00;;;;;;6250846;23;20469;-81
2023/06/11 01:26:19;;;;;;;8.47;7.57;;;21.50;1.00;;;;;;6251343;23;20445;-81
2023/06/11 01:28:51;;;;;;;9.40;7.10;;;21.40;1.00;;;;;;6253549;23;21072;-80
2023/06/11 01:31:19;;;;;;;7.93;6.33;;;21.30;1.00;;;;;;6251664;22;20511;-80
2023/06/11 01:33:46;;;;;;;8.17;6.50;;;21.30;1.00;;;;;;6251387;23;20403;-80
2023/06/11 01:36:14;;;;;;;7.30;6.60;;;21.40;1.00;;;;;;6251792;23;20392;-81
2023/06/11 01:38:42;;;;;;;7.60;6.63;;;21.30;1.00;;;;;;6252078;23;20439;-81
2023/06/11 01:41:09;;;;;;;9.10;6.97;;;21.30;1.00;;;;;;6253648;22;20423;-80
2023/06/11 01:43:36;;;;;;;7.33;6.63;;;21.30;1.00;;;;;;6252639;23;20942;-80
2023/06/11 01:46:05;;;;;;;7.50;6.80;;;21.20;1.00;;;;;;6249414;23;20478;-79
2023/06/11 01:48:32;;;;;;;7.83;7.03;;;21.30;1.00;;;;;;6249207;23;20449;-80
2023/06/11 01:51:00;;;;;;;8.20;6.10;;;21.20;1.00;;;;;;6249556;22;20426;-81
2023/06/11 01:53:26;;;;;;;7.40;6.70;;;21.20;1.00;;;;;;6248391;23;20481;-79
2023/06/11 01:55:55;;;;;;;9.37;7.40;;;21.20;1.00;;;;;;6250031;23;20472;-80
2023/06/11 01:58:22;;;;;;;7.83;6.43;;;21.20;1.00;;;;;;6250236;23;20498;-80
2023/06/11 02:00:49;;;;;;;8.50;6.93;;;21.20;1.00;;;;;;6249792;22;20471;-81
2023/06/11 02:03:17;;;;;;;7.90;7.00;;;21.10;1.00;;;;;;6248940;23;20514;-81
2023/06/11 02:05:44;;;;;;;9.87;8.30;;;21.10;1.00;;;;;;6250277;23;20442;-81
2023/06/11 02:08:11;;;;;;;8.50;7.30;;;21.00;1.00;;;;;;6252662;23;20414;-81
2023/06/11 02:10:38;;;;;;;7.73;7.00;;;21.00;1.00;;;;;;6253152;22;20427;-80
2023/06/11 02:13:05;;;;;;;7.90;7.00;;;20.90;1.00;;;;;;6252996;23;20415;-81
2023/06/11 02:15:32;;;;;;;7.93;6.90;;;20.90;1.00;;;;;;6253608;23;20416;-81
2023/06/11 02:17:58;;;;;;;7.97;7.17;;;20.90;1.00;;;;;;6253175;23;20442;-81
2023/06/11 02:20:26;;;;;;;7.80;7.00;;;20.90;1.00;;;;;;6252552;23;20516;-81
2023/06/11 02:22:53;;;;;;;7.23;6.53;;;20.80;1.00;;;;;;6251025;22;20431;-81
2023/06/11 02:25:20;;;;;;;9.37;8.40;;;20.80;1.00;;;;;;6251581;23;20407;-81
2023/06/11 02:27:49;;;;;;;8.47;7.60;;;20.80;1.00;;;;;;6252396;23;20935;-81
2023/06/11 02:30:16;;;;;;;8.33;6.87;;;20.70;1.00;;;;;;6249685;23;20404;-81
2023/06/11 02:32:43;;;;;;;9.73;7.67;;;20.70;1.00;;;;;;6249792;22;20442;-80
2023/06/11 02:35:10;;;;;;;9.33;6.97;;;20.70;1.00;;;;;;6251568;23;20416;-80
2023/06/11 02:37:38;;;;;;;7.00;6.40;;;20.60;1.00;;;;;;6250298;23;20817;-80
2023/06/11 02:40:06;;;;;;;7.90;7.00;;;20.60;1.00;;;;;;6250452;23;20445;-80
2023/06/11 02:42:33;;;;;;;9.00;7.40;;;20.50;1.00;;;;;;6248963;22;20438;-80
2023/06/11 02:45:00;;;;;;;7.50;6.70;;;20.50;1.00;;;;;;6250803;23;20479;-80
2023/06/11 02:47:26;;;;;;;8.93;7.63;;;20.50;1.00;;;;;;6250830;23;20436;-80
2023/06/11 02:49:54;;;;;;;8.80;7.03;;;20.40;1.00;;;;;;6250228;23;20410;-80
2023/06/11 02:52:21;;;;;;;7.53;6.77;;;20.40;1.00;;;;;;6250531;22;20942;-80
2023/06/11 02:54:49;;;;;;;8.07;7.07;;;20.40;1.00;;;;;;6251042;23;20419;-81
2023/06/11 02:57:16;;;;;;;8.50;7.10;;;20.50;1.00;;;;;;6250375;23;20408;-80
2023/06/11 02:59:43;;;;;;;7.97;7.20;;;20.40;1.00;;;;;;6249820;23;20976;-80
2023/06/11 03:02:09;;;;;;;8.20;6.57;;;20.40;1.00;;;;;;6249116;22;20527;-80
2023/06/11 03:04:37;;;;;;;9.60;6.80;;;20.40;1.00;;;;;;6248785;23;20414;-79
2023/06/11 03:07:04;;;;;;;7.80;7.00;;;20.40;1.00;;;;;;6249545;23;20408;-80
2023/06/11 03:09:30;;;;;;;8.80;7.50;;;20.30;1.00;;;;;;6248857;23;20407;-80
2023/06/11 03:11:59;;;;;;;8.07;7.23;;;20.30;1.00;;;;;;6248794;22;20821;-80
2023/06/11 03:14:26;;;;;;;9.20;6.70;;;20.30;1.00;;;;;;6249844;23;20434;-80
2023/06/11 03:16:53;;;;;;;13.23;7.47;;;20.20;1.00;;;;;;6249768;23;20490;-80
2023/06/11 03:19:20;;;;;;;8.80;7.90;;;20.20;1.00;;;;;;6250774;23;20542;-80
2023/06/11 03:21:47;;;;;;;8.93;6.60;;;20.20;7.30;;;;;;6249963;22;20512;-80
2023/06/11 03:24:14;;;;;;;7.57;6.83;;;20.20;16.70;;;;;;6249298;23;20483;-80
2023/06/11 03:26:41;;;;;;;7.83;7.00;;;20.30;1.00;;;;;;6250865;23;20925;-80
2023/06/11 03:29:09;;;;;;;8.03;7.20;;;20.10;99.90;;;;;;6250288;23;20466;-81
2023/06/11 03:31:37;;;;;;;7.13;6.47;;;20.10;99.90;;;;;;6249876;22;20439;-82
2023/06/11 03:34:04;;;;;;;11.00;6.97;;;20.20;92.20;;;;;;6249103;23;20411;-79
2023/06/11 03:36:31;;;;;;;8.50;7.20;;;20.20;19.90;;;;;;6250959;23;20408;-81
2023/06/11 03:38:57;;;;;;;8.37;7.47;;;20.10;99.90;;;;;;6250687;23;20480;-81
2023/06/11 03:41:25;;;;;;;7.30;6.60;;;20.10;99.90;;;;;;6252995;22;20506;-80
2023/06/11 03:43:52;;;;;;;6.80;6.20;;;20.10;86.60;;;;;;6253755;23;20420;-79
2023/06/11 03:46:21;;;;;;;10.50;7.40;;;20.10;68.20;;;;;;6255845;23;20498;-80
2023/06/11 03:48:48;;;;;;;7.37;6.67;;;20.10;63.70;;;;;;6253838;23;20408;-79
2023/06/11 03:51:16;;;;;;;9.43;7.07;;;20.10;99.90;;;;;;6248643;22;20510;-80
2023/06/11 03:53:42;;;;;;;10.97;7.10;;;20.10;99.90;;;;;;6249270;23;20479;-80
2023/06/11 03:56:09;;;;;;;9.73;7.10;;;20.10;99.90;;;;;;6251128;23;20844;-79
2023/06/11 03:58:36;;;;;;;8.43;7.60;;;20.10;99.90;;;;;;6251358;23;20439;-79
2023/06/11 04:01:03;;;;;;;8.10;7.30;;;20.10;99.90;;;;;;6250424;22;20499;-79
2023/06/11 04:03:31;;;;;;;7.67;6.97;;;20.10;99.90;;;;;;6250192;23;20399;-80
2023/06/11 04:05:58;;;;;;;8.13;7.20;;;20.10;99.90;;;;;;6250946;23;21116;-81
2023/06/11 04:08:25;;;;;;;7.70;6.63;;;20.10;99.90;;;;;;6250850;23;20462;-80
2023/06/11 04:10:52;;;;;;;8.60;7.67;;;20.10;99.90;;;;;;6251254;22;20411;-80
2023/06/11 04:13:18;;;;;;;7.97;7.17;;;20.10;99.90;;;;;;6250361;23;20396;-80
2023/06/11 04:15:45;;;;;;;10.43;7.67;;;20.10;99.90;;;;;;6252163;23;20494;-80
2023/06/11 04:18:12;;;;;;;7.13;6.27;;;20.20;99.90;;;;;;6251583;23;21011;-79
2023/06/11 04:20:40;;;;;;;8.17;7.37;;;20.20;99.90;;;;;;6251730;22;20765;-77
2023/06/11 04:23:07;;;;;;;7.53;6.83;;;20.30;99.90;;;;;;6250413;23;20495;-80
2023/06/11 04:25:36;;;;;;;11.30;6.90;;;20.30;99.90;;;;;;6253829;23;20411;-80
2023/06/11 04:28:03;;;;;;;7.53;6.80;;;20.30;99.90;;;;;;6252870;23;20454;-80
2023/06/11 04:30:31;;;;;;;9.23;6.80;;;20.30;99.90;;;;;;6251569;23;20936;-80
2023/06/11 04:32:58;;;;;;;9.60;7.40;;;20.30;99.90;;;;;;6251239;22;20454;-80
2023/06/11 04:35:25;;;;;;;7.73;7.03;;;20.30;99.90;;;;;;6252339;23;20416;-79
2023/06/11 04:37:53;;;;;;;13.87;7.30;;;20.40;99.90;;;;;;6251577;23;20434;-79
2023/06/11 04:40:20;;;;;;;8.77;6.63;;;20.50;99.90;;;;;;6250632;23;20474;-80
2023/06/11 04:42:48;;;;;;;9.10;7.27;;;20.60;99.90;;;;;;6249813;22;20938;-80
2023/06/11 04:45:18;;;;;;;8.30;7.50;;;20.60;99.90;;;;;;6250345;23;20426;-78
2023/06/11 04:47:45;;;;;;;8.33;7.53;;;20.60;99.90;;;;;;6249185;23;20412;-78
2023/06/11 04:50:12;;;;;;;7.23;6.53;;;20.70;99.90;;;;;;6249962;23;20898;-79
2023/06/11 04:52:42;;;;;;;7.47;6.77;;;20.70;99.90;;;;;;6248830;22;20432;-79
2023/06/11 04:55:12;;;;;;;8.80;7.40;;;20.70;99.90;;;;;;6251079;23;20451;-79
2023/06/11 04:57:39;;;;;;;7.87;7.07;;;20.80;99.90;;;;;;6250559;23;20518;-79
2023/06/11 05:00:08;;;;;;;7.30;6.20;;;20.80;99.90;;;;;;6249335;23;20439;-80
2023/06/11 05:02:37;;;;;;;8.83;7.20;;;20.90;99.90;;;;;;6249538;22;20464;-84
2023/06/11 05:05:05;;;;;;;7.80;7.00;;;20.90;99.90;;;;;;6254773;23;20414;-85
2023/06/11 05:07:32;;;;;;;7.50;6.80;;;20.90;99.90;;;;;;6257634;23;20477;-85
2023/06/11 05:09:58;;;;;;;8.40;6.87;;;21.00;56.80;;;;;;6257474;23;20408;-85
2023/06/11 05:12:27;;;;;;;7.50;6.80;;;21.00;36.40;;;;;;6256608;22;20480;-83
2023/06/11 05:14:54;;;;;;;7.63;6.90;;;21.10;1.00;;;;;;6256665;23;20414;-83
2023/06/11 05:17:20;;;;;;;9.17;6.83;;;21.10;1.00;;;;;;6254582;23;20467;-84
2023/06/11 05:19:47;;;;;;;6.70;6.10;;;21.20;1.00;;;;;;6254768;23;21016;-84
2023/06/11 05:22:14;;;;;;;7.37;6.67;;;21.30;1.00;;;;;;6255855;22;20496;-82
2023/06/11 05:24:42;;;;;;;7.10;6.40;;;21.30;1.00;;;;;;6253839;23;20813;-85
2023/06/11 05:27:09;;;;;;;8.60;6.63;;;21.40;1.00;;;;;;6254883;23;20415;-84
2023/06/11 05:29:37;;;;;;;7.53;6.80;;;21.50;17.20;;;;;;6255137;23;20411;-85
2023/06/11 05:32:08;;;;;;;6.77;6.10;;;21.50;64.40;;;;;;6255723;22;20812;-84
2023/06/11 05:34:37;;;;;;;7.10;6.50;;;21.60;28.80;;;;;;6255291;23;20403;-85
2023/06/11 05:37:04;;;;;;;8.30;7.00;;;21.70;99.90;;;;;;6251168;23;20950;-85
2023/06/11 05:39:31;;;;;;;7.57;6.80;;;21.70;74.30;;;;;;6257216;23;20515;-85
2023/06/11 05:41:58;;;;;;;7.20;6.50;;;21.70;97.50;;;;;;6256510;22;20427;-85
2023/06/11 05:44:25;;;;;;;8.57;7.03;;;21.80;31.80;;;;;;6256179;23;20446;-84
2023/06/11 05:46:53;;;;;;;8.60;6.93;;;21.80;99.90;;;;;;6262536;23;20926;-84
2023/06/11 05:49:20;;;;;;;7.77;7.07;;;21.80;99.90;;;;;;6266774;23;20411;-83
2023/06/11 05:51:46;;;;;;;7.00;6.10;;;21.90;1.00;;;;;;6249990;22;20412;-84
2023/06/11 05:54:13;;;;;;;7.03;6.33;;;21.90;1.00;;;;;;6248915;23;20490;-83
2023/06/11 05:56:40;;;;;;;10.37;6.37;;;22.00;1.00;;;;;;6249299;23;20407;-84
2023/06/11 05:59:07;;;;;;;7.10;6.40;;;22.00;1.00;;;;;;6250770;23;20499;-84
2023/06/11 06:01:34;;;;;;;7.37;6.67;;;22.00;1.00;;;;;;6249609;23;20455;-84
2023/06/11 06:04:03;;;;;;;6.67;6.07;;;22.10;1.00;;;;;;6249633;23;20427;-83
2023/06/11 06:06:30;;;;;;;8.13;6.83;;;22.20;1.00;;;;;;6249562;23;20403;-83
2023/06/11 06:08:56;;;;;;;8.17;7.30;;;22.20;1.00;;;;;;6249354;23;20407;-82
2023/06/11 06:11:23;;;;;;;8.90;6.97;;;22.30;1.00;;;;;;6249508;23;20913;-83
2023/06/11 06:13:50;;;;;;;7.70;6.87;;;22.40;1.00;;;;;;6248420;22;20487;-83
2023/06/11 06:16:17;;;;;;;6.50;5.90;;;22.40;1.00;;;;;;6248724;23;20411;-83
2023/06/11 06:18:44;;;;;;;6.33;5.60;;;22.50;1.00;;;;;;6249165;23;20447;-81
2023/06/11 06:21:12;;;;;;;9.40;6.70;;;22.50;1.00;;;;;;6249261;23;20451;-83
2023/06/11 06:23:39;;;;;;;7.30;6.60;;;22.60;1.00;;;;;;6248755;22;20498;-83
2023/06/11 06:26:06;;;;;;;8.13;6.60;;;22.70;1.00;;;;;;6250208;23;20924;-82
2023/06/11 06:28:34;;;;;;;8.30;7.40;;;22.70;1.00;;;;;;6250818;23;20479;-83
2023/06/11 06:31:02;;;;;;;7.43;6.73;;;22.70;1.00;;;;;;6251142;23;20725;-81
2023/06/11 06:33:30;;;;;;;7.40;6.60;;;22.80;1.00;;;;;;6249107;22;20454;-81
2023/06/11 06:35:57;;;;;;;7.57;6.77;;;22.90;1.00;;;;;;6251708;23;20483;-82
2023/06/11 06:38:25;;;;;;;7.33;6.60;;;23.00;1.00;;;;;;6249405;23;20490;-83
2023/06/11 06:40:51;;;;;;;8.17;7.47;;;22.90;1.00;;;;;;6254329;23;20506;-81
2023/06/11 06:43:18;;;;;;;7.67;6.03;;;23.00;1.00;;;;;;6260093;22;20458;-81
2023/06/11 06:45:45;;;;;;;7.73;6.67;;;23.10;1.00;;;;;;6256643;23;20439;-82
2023/06/11 06:48:12;;;;;;;13.53;6.47;;;23.10;1.00;;;;;;6249523;23;20494;-82
2023/06/11 06:50:39;;;;;;;6.77;6.03;;;23.20;1.00;;;;;;6247698;23;20490;-81
2023/06/11 06:53:05;;;;;;;8.20;7.33;;;23.30;1.00;;;;;;6248763;22;20434;-81
2023/06/11 06:55:33;;;;;;;7.37;6.67;;;23.30;1.00;;;;;;6248083;23;20494;-81
2023/06/11 06:58:00;;;;;;;6.87;6.27;;;23.40;1.00;;;;;;6248377;23;20795;-82
2023/06/11 07:00:27;;;;;;;8.60;5.80;;;23.50;1.00;;;;;;6247886;23;20448;-83
2023/06/11 07:02:54;;;;;;;7.10;6.50;;;23.60;1.00;;;;;;6247247;22;21011;-84
2023/06/11 07:05:21;;;;;;;7.40;6.70;;;23.60;1.00;;;;;;6245875;23;20483;-80
2023/06/11 07:07:48;;;;;;;6.93;6.23;;;23.70;1.00;;;;;;6249975;23;20590;-85
2023/06/11 07:10:14;;;;;;;8.60;6.40;;;23.80;1.00;;;;;;6251430;23;20410;-82
2023/06/11 07:12:43;;;;;;;7.33;6.13;;;23.90;1.00;;;;;;6250109;22;20431;-83
2023/06/11 07:15:10;;;;;;;6.93;6.23;;;23.90;1.00;;;;;;6252175;23;20439;-83
2023/06/11 07:17:37;;;;;;;7.53;5.90;;;24.00;1.00;;;;;;6249925;23;20467;-82
2023/06/11 07:20:07;;;;;;;7.93;6.97;;;24.10;1.00;;;;;;6250921;23;20414;-82
2023/06/11 07:22:33;;;;;;;6.90;6.30;;;24.30;1.00;;;;;;6250356;22;20474;-82
2023/06/11 07:25:01;;;;;;;6.57;5.97;;;24.40;1.00;;;;;;6250341;23;20479;-83
2023/06/11 07:27:27;;;;;;;6.63;5.93;;;24.50;1.00;;;;;;6250294;23;20407;-82
2023/06/11 07:29:56;;;;;;;6.07;5.47;;;24.50;1.00;;;;;;6251644;23;20408;-83
2023/06/11 07:32:22;;;;;;;8.07;6.20;;;24.60;1.00;;;;;;6251293;22;20496;-83
2023/06/11 07:34:49;;;;;;;6.83;5.77;;;24.60;1.00;;;;;;6253355;23;20408;-81
2023/06/11 07:37:16;;;;;;;6.53;5.83;;;24.80;1.00;;;;;;6253171;23;20431;-83
2023/06/11 07:39:57;;;;;;;6.80;5.47;;;24.90;1.00;;;;;;6255051;23;20391;-81
2023/06/11 07:42:24;;;;;;;6.10;5.50;;;24.90;1.00;;;;;;6255233;22;20993;-82
2023/06/11 07:44:50;;;;;;;6.60;6.10;;;25.00;99.90;;;;;;6256103;23;20543;-81
2023/06/11 07:47:19;;;;;;;6.20;5.60;;;25.00;99.90;;;;;;6255672;23;20436;-85
2023/06/11 07:49:47;;;;;;;5.90;5.30;;;25.20;99.90;;;;;;6256571;23;20444;-81
2023/06/11 07:58:15;;;;;;;7.57;6.00;;;25.50;99.90;;;;;;6084462;23;20449;-82
2023/06/11 08:00:42;;;;;;;21.43;7.80;;;25.70;99.90;;;;;;6252190;23;20495;-81
2023/06/11 08:03:11;;;;;;;7.00;5.10;;;25.80;99.90;;;;;;6255963;22;20501;-81
2023/06/11 08:05:38;;;;;;;6.10;4.97;;;25.80;99.90;;;;;;6257190;23;20403;-80
2023/06/11 08:08:06;;;;;;;6.27;5.70;;;25.80;99.90;;;;;;6255789;23;20447;-80
2023/06/11 08:10:33;;;;;;;5.93;5.43;;;25.90;99.90;;;;;;6252961;23;20495;-83
2023/06/11 08:13:00;;;;;;;5.40;4.17;;;26.10;99.90;;;;;;6249886;22;20431;-83
2023/06/11 08:15:27;;;;;;;7.50;5.23;;;26.20;99.90;;;;;;6249325;23;20988;-81
2023/06/11 08:17:54;;;;;;;10.07;6.10;;;26.30;99.90;;;;;;6250207;23;20411;-80
2023/06/11 08:20:22;;;;;;;5.93;4.17;;;26.50;99.90;;;;;;6251932;23;20451;-82
2023/06/11 08:22:49;;;;;;;5.33;4.40;;;26.50;99.90;;;;;;6251114;22;20519;-83
2023/06/11 08:25:16;;;;;;;4.97;4.43;;;26.70;99.90;;;;;;6253893;23;20437;-83
2023/06/11 08:27:43;;;;;;;4.80;4.00;;;26.90;99.90;;;;;;6252116;23;20414;-81
2023/06/11 08:30:10;;;;;;;5.50;4.50;;;27.10;99.90;;;;;;6251678;23;20486;-81
2023/06/11 08:32:37;;;;;;;5.27;4.03;;;27.30;99.90;;;;;;6251852;22;20426;-81
2023/06/11 08:35:04;;;;;;;5.20;4.27;;;27.30;99.90;;;;;;6252822;23;20805;-80
2023/06/11 08:37:32;;;;;;;5.50;3.63;;;27.50;99.90;;;;;;6253120;23;20422;-81
2023/06/11 08:39:59;;;;;;;5.10;4.30;;;27.60;99.90;;;;;;6253650;23;20503;-82
2023/06/11 08:42:26;;;;;;;4.63;3.97;;;27.80;99.90;;;;;;6253449;22;20470;-80
2023/06/11 08:44:53;;;;;;;6.70;4.10;;;27.90;99.90;;;;;;6252481;23;20949;-83
2023/06/11 08:47:23;;;;;;;4.90;4.37;;;28.10;99.90;;;;;;6251739;23;20427;-83
2023/06/11 08:49:52;;;;;;;5.20;4.57;;;28.30;99.90;;;;;;6252897;23;20411;-81
2023/06/11 08:52:21;;;;;;;7.93;4.33;;;28.30;99.90;;;;;;6251595;22;20420;-82
2023/06/11 08:54:49;;;;;;;4.50;3.90;;;28.40;99.90;;;;;;6252432;23;20404;-80
2023/06/11 08:57:16;;;;;;;4.67;4.20;;;28.60;99.90;;;;;;6252502;23;20926;-82
2023/06/11 08:59:43;;;;;;;5.23;4.47;;;28.60;99.90;;;;;;6252153;23;20414;-82
2023/06/11 09:02:10;;;;;;;4.93;4.43;;;28.70;99.90;;;;;;6253751;22;20538;-82
2023/06/11 09:04:37;;;;;;;45.23;7.50;;;28.90;99.90;;;;;;6251444;23;20487;-81
2023/06/11 09:07:05;;;;;;;5.37;3.40;;;28.90;99.90;;;;;;6252933;23;20778;-82
2023/06/11 09:09:32;;;;;;;5.17;4.23;;;28.90;99.90;;;;;;6253814;23;20513;-83
2023/06/11 09:12:06;;;;;;;8.20;4.17;;;29.10;99.90;;;;;;6254027;22;20459;-82
2023/06/11 09:14:33;;;;;;;5.27;4.77;;;29.30;99.90;;;;;;6249615;23;21037;-82
2023/06/11 09:17:00;;;;;;;3.70;3.40;;;29.10;99.90;;;;;;6253051;23;20507;-82
2023/06/11 09:19:27;;;;;;;4.83;3.90;;;29.40;99.90;;;;;;6252513;23;20498;-81
2023/06/11 09:21:56;;;;;;;5.60;4.20;;;29.60;99.90;;;;;;6252112;22;20443;-81
2023/06/11 09:24:24;;;;;;;4.30;3.90;;;29.60;99.90;;;;;;6253879;23;20515;-82
2023/06/11 09:26:53;;;;;;;5.20;4.33;;;29.80;99.90;;;;;;6254480;23;20408;-80
2023/06/11 09:29:21;;;;;;;4.43;4.03;;;29.90;99.90;;;;;;6251206;23;20743;-81
2023/06/11 09:31:48;;;;;;;7.10;4.33;;;30.00;99.90;;;;;;6252727;22;20399;-82
2023/06/11 09:34:21;;;;;;;4.43;4.00;;;30.20;99.90;;;;;;6251708;23;21014;-81
2023/06/11 09:36:48;;;;;;;4.90;4.40;;;30.30;99.90;;;;;;6251811;23;20428;-80
2023/06/11 09:39:17;;;;;;;5.50;4.50;;;30.40;99.90;;;;;;6252918;23;20412;-81
2023/06/11 09:41:50;;;;;;;4.70;4.30;;;30.10;99.90;;;;;;6242149;22;20787;-80
2023/06/11 09:44:18;;;;;;;6.47;5.00;;;30.30;99.90;;;;;;6242731;23;20427;-80
2023/06/11 09:46:48;;;;;;;4.60;4.10;;;30.30;99.90;;;;;;6250814;23;20893;-80
2023/06/11 09:49:15;;;;;;;5.57;4.73;;;30.70;99.90;;;;;;6248670;23;20751;-81
2023/06/11 09:51:43;;;;;;;4.80;4.40;;;30.90;99.90;;;;;;6251735;22;20471;-82
2023/06/11 09:54:12;;;;;;;5.23;4.73;;;31.00;99.90;;;;;;6249499;23;20418;-83
2023/06/11 09:56:40;;;;;;;6.07;4.90;;;31.00;99.90;;;;;;6260390;23;20400;-80
2023/06/11 09:59:07;;;;;;;5.03;4.43;;;31.10;99.90;;;;;;6265930;23;20412;-82
2023/06/11 10:01:34;;;;;;;5.23;4.40;;;31.00;99.90;;;;;;6255741;23;20439;-83
2023/06/11 10:04:02;;;;;;;5.40;4.53;;;30.70;99.90;;;;;;6249485;22;20435;-82
2023/06/11 10:06:33;;;;;;;4.83;4.17;;;30.80;99.90;;;;;;6249852;23;20412;-81
2023/06/11 10:09:03;;;;;;;4.70;4.30;;;31.00;99.90;;;;;;6247951;23;20473;-79
2023/06/11 10:11:38;;;;;;;6.60;5.00;;;31.20;99.90;;;;;;6242637;23;20419;-80
2023/06/11 10:14:06;;;;;;;6.20;4.83;;;31.30;99.90;;;;;;6248372;23;20725;-81
2023/06/11 10:16:33;;;;;;;4.47;3.93;;;31.50;99.90;;;;;;6246385;23;20519;-81
2023/06/11 10:19:08;;;;;;;4.90;4.43;;;31.70;99.90;;;;;;6247647;23;20490;-80
2023/06/11 10:21:37;;;;;;;6.47;4.63;;;31.90;99.90;;;;;;6246756;23;20443;-82
2023/06/11 10:24:05;;;;;;;5.40;4.90;;;32.00;99.90;;;;;;6248277;23;20415;-79
2023/06/11 10:26:35;;;;;;;5.47;4.57;;;32.00;99.90;;;;;;6246237;23;20815;-81
2023/06/11 10:29:02;;;;;;;4.90;4.27;;;32.20;99.90;;;;;;6246966;23;20519;-79
2023/06/11 10:31:30;;;;;;;5.93;4.13;;;32.50;99.90;;;;;;6247605;23;20446;-78
2023/06/11 10:34:04;;;;;;;5.23;4.43;;;32.70;99.90;;;;;;6247829;22;20434;-82
2023/06/11 10:36:36;;;;;;;8.90;4.37;;;32.90;99.90;;;;;;6247964;23;20451;-80
2023/06/11 10:39:09;;;;;;;7.47;5.27;;;32.80;99.90;;;;;;6247421;23;20454;-79
2023/06/11 10:41:39;;;;;;;7.57;5.00;;;33.00;99.90;;;;;;6246805;23;20844;-80
2023/06/11 10:44:07;;;;;;;5.87;4.73;;;32.90;99.90;;;;;;6246163;23;20979;-80
2023/06/11 10:46:44;;;;;;;5.40;4.47;;;33.10;99.90;;;;;;6248700;23;20417;-80
2023/06/11 10:49:14;;;;;;;6.17;4.23;;;33.30;99.90;;;;;;6248990;23;20392;-81
2023/06/11 10:51:42;;;;;;;5.53;4.60;;;33.40;99.90;;;;;;6248184;22;20909;-81
2023/06/11 10:54:09;;;;;;;6.73;4.73;;;33.10;99.90;;;;;;6246684;23;20985;-81
2023/06/11 10:56:38;;;;;;;6.40;4.63;;;33.10;99.90;;;;;;6245605;23;20419;-82
2023/06/11 10:59:09;;;;;;;6.10;4.50;;;33.10;99.90;;;;;;6246588;23;20418;-81
2023/06/11 11:01:36;;;;;;;5.13;4.63;;;33.30;99.90;;;;;;6246144;23;20467;-81
2023/06/11 11:04:04;;;;;;;5.00;4.33;;;33.40;99.90;;;;;;6249169;22;20486;-82
2023/06/11 11:06:31;;;;;;;6.07;4.87;;;33.70;99.90;;;;;;6251251;23;20446;-78
2023/06/11 11:09:02;;;;;;;5.53;4.53;;;33.70;99.90;;;;;;6251179;23;20408;-81
2023/06/11 11:11:29;;;;;;;6.70;4.70;;;33.90;99.90;;;;;;6248970;23;20447;-80
2023/06/11 11:13:59;;;;;;;6.67;4.33;;;34.20;99.90;;;;;;6248262;22;20429;-80
2023/06/11 11:16:26;;;;;;;5.40;4.40;;;34.20;99.90;;;;;;6249016;23;21126;-80
2023/06/11 11:18:53;;;;;;;7.30;5.20;;;34.00;99.90;;;;;;6249610;23;20403;-81
2023/06/11 11:21:29;;;;;;;8.57;5.37;;;33.40;99.90;;;;;;6250719;23;20404;-79
2023/06/11 11:23:56;;;;;;;5.40;4.90;;;33.20;99.90;;;;;;6249230;22;20438;-81
2023/06/11 11:26:26;;;;;;;5.13;4.63;;;33.50;99.90;;;;;;6251500;23;20948;-80
2023/06/11 11:28:53;;;;;;;5.93;4.47;;;34.00;99.90;;;;;;6250976;23;20492;-80
2023/06/11 11:31:22;;;;;;;5.17;4.47;;;34.10;99.90;;;;;;6249826;23;20411;-81
2023/06/11 11:33:50;;;;;;;6.27;5.07;;;33.30;99.90;;;;;;6249174;22;20515;-79
2023/06/11 11:36:17;;;;;;;5.80;5.13;;;32.90;99.90;;;;;;6249781;23;20796;-78
2023/06/11 11:38:44;;;;;;;5.80;4.93;;;32.70;99.90;;;;;;6251777;23;20434;-80
2023/06/11 11:41:11;;;;;;;7.07;4.97;;;32.40;99.90;;;;;;6250814;23;20407;-80
2023/06/11 11:43:41;;;;;;;5.07;4.57;;;32.90;99.90;;;;;;6248739;22;20455;-79
2023/06/11 11:46:16;;;;;;;5.20;4.70;;;33.40;99.90;;;;;;6250857;23;20405;-81
2023/06/11 11:48:43;;;;;;;6.70;5.43;;;33.90;99.90;;;;;;6248812;23;20399;-81
2023/06/11 11:51:13;;;;;;;6.67;4.90;;;34.50;99.90;;;;;;6249714;23;20482;-83
2023/06/11 11:53:40;;;;;;;6.33;5.63;;;34.70;99.90;;;;;;6250166;22;20506;-80
2023/06/11 11:56:07;;;;;;;6.47;5.20;;;34.90;99.90;;;;;;6251169;23;20415;-82
2023/06/11 11:58:39;;;;;;;5.60;4.47;;;35.10;99.90;;;;;;6250483;23;20806;-81
2023/06/11 12:01:08;;;;;;;5.93;5.03;;;35.20;99.90;;;;;;6251336;23;21195;-81
2023/06/11 12:03:35;;;;;;;5.53;5.00;;;34.30;99.90;;;;;;6249280;22;20478;-80
2023/06/11 12:06:04;;;;;;;5.80;4.73;;;34.30;99.90;;;;;;6249793;23;20502;-81
2023/06/11 12:08:32;;;;;;;5.97;5.37;;;34.40;99.90;;;;;;6251092;23;20403;-78
2023/06/11 12:11:00;;;;;;;6.10;5.50;;;35.00;99.90;;;;;;6251388;23;20415;-78
2023/06/11 12:13:27;;;;;;;6.53;5.43;;;35.60;99.90;;;;;;6252110;22;20511;-80
2023/06/11 12:15:55;;;;;;;6.27;5.67;;;35.80;99.90;;;;;;6251825;23;20450;-81
2023/06/11 12:18:22;;;;;;;5.97;5.40;;;36.40;99.90;;;;;;6252482;23;20413;-80
2023/06/11 12:20:51;;;;;;;5.47;4.67;;;36.90;99.90;;;;;;6251320;23;20447;-80
2023/06/11 12:23:18;;;;;;;4.83;4.43;;;37.80;99.90;;;;;;6250674;22;20456;-83
2023/06/11 12:25:45;;;;;;;5.80;4.93;;;38.10;99.90;;;;;;6250446;23;20491;-80
2023/06/11 12:28:12;;;;;;;5.33;4.83;;;37.70;99.90;;;;;;6250757;23;20467;-81
2023/06/11 12:30:39;;;;;;;5.87;4.80;;;36.60;99.90;;;;;;6248500;23;20730;-80
2023/06/11 12:33:07;;;;;;;7.10;5.70;;;35.70;99.90;;;;;;6247106;22;20432;-80
2023/06/11 12:35:36;;;;;;;6.70;5.67;;;34.50;99.90;;;;;;6247582;23;20431;-81
2023/06/11 12:38:02;;;;;;;5.53;4.73;;;34.10;99.90;;;;;;6250348;23;20454;-79
2023/06/11 12:40:30;;;;;;;6.30;5.00;;;33.60;99.90;;;;;;6249587;23;20751;-80
2023/06/11 12:42:58;;;;;;;7.13;4.63;;;33.20;99.90;;;;;;6248698;22;20455;-80
2023/06/11 12:45:26;;;;;;;5.23;4.50;;;33.00;99.90;;;;;;6247795;23;20498;-82
2023/06/11 12:47:55;;;;;;;7.00;5.23;;;32.70;99.90;;;;;;6248559;23;20821;-81
2023/06/11 12:50:23;;;;;;;5.67;5.17;;;32.40;99.90;;;;;;6249635;23;20415;-81
2023/06/11 12:52:51;;;;;;;5.30;4.80;;;32.10;99.90;;;;;;6249098;22;20428;-79
2023/06/11 12:55:18;;;;;;;7.10;5.03;;;32.90;99.90;;;;;;6251199;23;20479;-81
2023/06/11 12:57:45;;;;;;;7.90;5.17;;;34.90;99.90;;;;;;6250188;23;20775;-82
2023/06/11 13:00:13;;;;;;;7.20;5.23;;;36.60;99.90;;;;;;6251298;23;20467;-83